LRCL

Cluj-Napoca International Airport

Cluj-Napoca, Romania
TAF LRCL 170800Z 1709/1718 VRB04KT 9999 BKN035
Issued Valid From Valid To
Nov-17 @ 08:00 UTC
(58 minutes ago)
Nov-17 @ 09:00 UTC
(in 2 minutes)
Nov-17 @ 18:00 UTC
(in 9 hours)
Nov-17 @ 09:00 to Nov-17 @ 18:00
TAF LRCL 170800Z 1709/1718 VRB04KT 9999 BKN035
Wind Visibility Clouds
Variable at 4 knots 10,000+ meters
  • Broken at 3,500' AGL
TAF LRCL 170800Z 1709/1718 VRB04KT 9999 BKN035
Issued Nov-17 @ 08:00 UTC
(58 minutes ago)
Valid From Nov-17 @ 09:00 UTC
(in 2 minutes)
Valid To Nov-17 @ 18:00 UTC
(in 9 hours)
Nov-17 @ 09:00 - Nov-17 @ 18:00
Wind Visibility
Variable at 4 knots 10,000+ meters
Clouds
  • Broken at 3,500' AGL